createdAt,value
2022-11-18T00:00:01.441Z,51.212112
2022-11-18T00:01:01.428Z,51.211994
2022-11-18T00:02:01.460Z,51.212009
2022-11-18T00:03:01.417Z,51.212151
2022-11-18T00:04:01.406Z,51.212120
2022-11-18T00:05:01.385Z,51.212105
2022-11-18T00:06:02.396Z,51.212196
2022-11-18T00:07:01.455Z,51.212124
2022-11-18T00:08:01.381Z,51.212070
2022-11-18T00:09:01.420Z,51.211990
2022-11-18T00:10:01.366Z,51.211941
2022-11-18T00:11:01.387Z,51.212002
2022-11-18T00:12:01.346Z,51.211990
2022-11-18T00:13:01.352Z,51.212093
2022-11-18T00:14:01.348Z,51.212006
2022-11-18T00:15:01.332Z,51.212215
2022-11-18T00:16:01.346Z,51.212151
2022-11-18T00:17:01.324Z,51.212112
2022-11-18T00:18:01.333Z,51.212234
2022-11-18T00:19:01.308Z,51.212189
2022-11-18T00:20:01.319Z,51.211998
2022-11-18T00:21:01.308Z,51.212025
2022-11-18T00:22:01.291Z,51.212166
2022-11-18T00:23:01.318Z,51.212181
2022-11-18T00:24:01.267Z,51.212093
2022-11-18T00:25:01.276Z,51.212093
2022-11-18T00:26:01.296Z,51.212097
2022-11-18T00:27:01.258Z,51.212219
2022-11-18T00:28:01.257Z,51.212223
2022-11-18T00:29:01.268Z,51.212193
2022-11-18T00:30:01.235Z,51.212215
2022-11-18T00:31:01.238Z,51.212139
2022-11-18T00:32:01.251Z,51.212162
2022-11-18T00:33:01.274Z,51.212147
2022-11-18T00:34:01.414Z,51.212166
2022-11-18T00:35:01.226Z,51.212143
2022-11-18T00:36:01.224Z,51.212105
2022-11-18T00:37:01.198Z,51.212177
2022-11-18T00:38:01.217Z,51.212215
2022-11-18T00:39:01.189Z,51.212250
2022-11-18T00:40:01.202Z,51.212162
2022-11-18T00:41:01.180Z,51.212158
2022-11-18T00:42:01.170Z,51.212135
2022-11-18T00:43:01.219Z,51.212120
2022-11-18T00:44:05.098Z,51.212036
2022-11-18T00:45:02.183Z,51.212070
2022-11-18T00:46:01.148Z,51.212063
2022-11-18T00:47:01.160Z,51.212109
2022-11-18T00:48:01.134Z,51.212021
2022-11-18T00:49:01.124Z,51.212086
2022-11-18T00:50:01.136Z,51.212215
2022-11-18T00:51:01.132Z,51.212063
2022-11-18T00:52:01.109Z,51.212116
2022-11-18T00:53:01.108Z,51.212086
2022-11-18T00:54:01.098Z,51.211910
2022-11-18T00:55:01.092Z,51.212044
2022-11-18T00:56:01.149Z,51.212067
2022-11-18T00:57:01.068Z,51.212154
2022-11-18T00:58:01.065Z,51.212181
2022-11-18T00:59:01.093Z,51.212040
2022-11-18T01:00:01.048Z,51.212124
2022-11-18T01:01:01.092Z,51.212276
2022-11-18T01:02:01.076Z,51.212234
2022-11-18T01:03:01.100Z,51.212177
2022-11-18T01:04:01.029Z,51.212196
2022-11-18T01:05:01.029Z,51.212265
2022-11-18T01:06:01.148Z,51.212227
2022-11-18T01:07:01.035Z,51.212269
2022-11-18T01:08:01.021Z,51.212212
2022-11-18T01:09:01.021Z,51.212208
2022-11-18T01:10:00.997Z,51.212170
2022-11-18T01:11:00.990Z,51.212242
2022-11-18T01:12:00.992Z,51.212246
2022-11-18T01:13:01.012Z,51.212193
2022-11-18T01:14:00.974Z,51.212257
2022-11-18T01:15:00.986Z,51.212303
2022-11-18T01:16:01.022Z,51.212261
2022-11-18T01:17:00.956Z,51.212200
2022-11-18T01:18:00.981Z,51.212173
2022-11-18T01:19:00.933Z,51.212112
2022-11-18T01:20:00.931Z,51.212086
2022-11-18T01:21:00.937Z,51.212242
2022-11-18T01:22:00.918Z,51.212017
2022-11-18T01:23:00.920Z,51.212112
2022-11-18T01:24:00.970Z,51.211830
2022-11-18T01:25:00.900Z,51.212132
2022-11-18T01:26:00.929Z,51.211998
2022-11-18T01:27:00.906Z,51.212173
2022-11-18T01:28:00.884Z,51.212105
2022-11-18T01:29:00.896Z,51.212185
2022-11-18T01:30:00.876Z,51.212139
2022-11-18T01:31:00.868Z,51.212154
2022-11-18T01:32:23.452Z,51.212166
2022-11-18T01:33:02.870Z,51.212200
2022-11-18T01:34:00.856Z,51.212124
2022-11-18T01:35:00.856Z,51.212109
2022-11-18T01:36:01.065Z,51.212154
2022-11-18T01:37:00.854Z,51.212280
2022-11-18T01:38:00.813Z,51.212139
2022-11-18T01:39:00.836Z,51.212112
2022-11-18T01:40:00.828Z,51.212147
2022-11-18T01:41:00.854Z,51.212181
2022-11-18T01:42:00.809Z,51.212158
2022-11-18T01:43:00.800Z,51.212208
2022-11-18T01:44:00.790Z,51.212200
2022-11-18T01:45:00.809Z,51.212189
2022-11-18T01:46:00.798Z,51.212151
2022-11-18T01:47:00.772Z,51.212208
2022-11-18T01:48:00.809Z,51.212223
2022-11-18T01:49:00.757Z,51.212349
2022-11-18T01:50:00.764Z,51.212200
2022-11-18T01:51:00.772Z,51.212254
2022-11-18T01:52:00.740Z,51.212193
2022-11-18T01:53:00.767Z,51.211975
2022-11-18T01:54:00.732Z,51.212170
2022-11-18T01:55:00.720Z,51.212212
2022-11-18T01:56:00.710Z,51.212219
2022-11-18T01:57:00.725Z,51.212215
2022-11-18T01:58:00.699Z,51.212215
2022-11-18T01:59:00.702Z,51.212208
2022-11-18T02:00:00.711Z,51.212208
2022-11-18T02:01:00.712Z,51.212177
2022-11-18T02:02:00.734Z,51.212200
2022-11-18T02:03:00.689Z,51.212143
2022-11-18T02:04:00.657Z,51.212063
2022-11-18T02:05:00.673Z,51.212097
2022-11-18T02:06:00.661Z,51.212063
2022-11-18T02:07:00.689Z,51.212036
2022-11-18T02:08:00.624Z,51.212070
2022-11-18T02:09:00.647Z,51.212170
2022-11-18T02:10:00.625Z,51.212276
2022-11-18T02:11:00.627Z,51.212055
2022-11-18T02:12:00.694Z,51.212143
2022-11-18T02:13:00.607Z,51.212139
2022-11-18T02:14:00.592Z,51.212101
2022-11-18T02:15:00.595Z,51.211987
2022-11-18T02:16:00.627Z,51.212040
2022-11-18T02:17:00.564Z,51.212154
2022-11-18T02:18:00.589Z,51.212093
2022-11-18T02:19:00.556Z,51.212097
2022-11-18T02:20:00.584Z,51.212044
2022-11-18T02:21:00.573Z,51.211914
2022-11-18T02:22:00.548Z,51.211918
2022-11-18T02:23:00.550Z,51.212120
2022-11-18T02:24:00.545Z,51.212059
2022-11-18T02:25:00.537Z,51.212162
2022-11-18T02:26:00.510Z,51.211884
2022-11-18T02:27:00.510Z,51.212097
2022-11-18T02:28:00.546Z,51.212132
2022-11-18T02:29:00.510Z,51.211933
2022-11-18T02:30:00.490Z,51.211987
2022-11-18T02:31:00.500Z,51.212063
2022-11-18T02:32:00.512Z,51.212132
2022-11-18T02:33:00.473Z,51.212177
2022-11-18T02:34:00.469Z,51.212055
2022-11-18T02:35:00.494Z,51.211998
2022-11-18T02:36:00.461Z,51.211948
2022-11-18T02:37:00.457Z,51.212109
2022-11-18T02:38:00.445Z,51.211964
2022-11-18T02:39:00.442Z,51.211941
2022-11-18T02:40:00.445Z,51.211926
2022-11-18T02:41:00.473Z,51.211811
2022-11-18T02:42:00.422Z,51.211975
2022-11-18T02:43:00.421Z,51.212158
2022-11-18T02:44:00.402Z,51.212147
2022-11-18T02:45:00.433Z,51.212040
2022-11-18T02:46:00.406Z,51.212013
2022-11-18T02:47:00.426Z,51.211979
2022-11-18T02:48:00.373Z,51.211998
2022-11-18T02:49:00.385Z,51.212067
2022-11-18T02:50:00.409Z,51.212059
2022-11-18T02:51:00.364Z,51.211964
2022-11-18T02:52:00.401Z,51.211975
2022-11-18T02:53:00.353Z,51.211906
2022-11-18T02:54:00.367Z,51.211952
2022-11-18T02:55:00.378Z,51.211990
2022-11-18T02:56:00.331Z,51.212147
2022-11-18T02:57:00.351Z,51.212059
2022-11-18T02:58:00.339Z,51.212055
2022-11-18T02:59:00.320Z,51.212006
2022-11-18T03:00:00.343Z,51.211937
2022-11-18T03:01:00.435Z,51.212120
2022-11-18T03:02:00.414Z,51.212070
2022-11-18T03:03:00.298Z,51.212006
2022-11-18T03:04:00.286Z,51.212097
2022-11-18T03:05:00.290Z,51.212132
2022-11-18T03:06:00.993Z,51.212044
2022-11-18T03:07:00.384Z,51.212116
2022-11-18T03:08:00.278Z,51.212181
2022-11-18T03:09:00.283Z,51.212204
2022-11-18T03:10:00.246Z,51.212074
2022-11-18T03:11:01.274Z,51.212063
2022-11-18T03:12:00.254Z,51.212135
2022-11-18T03:13:00.230Z,51.212143
2022-11-18T03:14:00.236Z,51.212143
2022-11-18T03:15:00.224Z,51.212132
2022-11-18T03:16:00.266Z,51.212074
2022-11-18T03:17:00.206Z,51.212036
2022-11-18T03:18:00.216Z,51.212051
2022-11-18T03:19:00.222Z,51.212074
2022-11-18T03:20:00.192Z,51.211956
2022-11-18T03:21:00.219Z,51.212116
2022-11-18T03:22:00.194Z,51.212185
2022-11-18T03:23:00.205Z,51.212227
2022-11-18T03:24:00.198Z,51.212067
2022-11-18T03:25:00.172Z,51.212147
2022-11-18T03:26:00.165Z,51.212059
2022-11-18T03:27:00.194Z,51.212082
2022-11-18T03:28:00.125Z,51.212234
2022-11-18T03:29:00.134Z,51.212330
2022-11-18T03:30:00.168Z,51.212112
2022-11-18T03:31:00.105Z,51.212132
2022-11-18T03:32:00.134Z,51.212139
2022-11-18T03:33:00.145Z,51.212181
2022-11-18T03:34:00.118Z,51.211983
2022-11-18T03:35:00.101Z,51.211872
2022-11-18T03:36:00.138Z,51.212036
2022-11-18T03:37:00.933Z,51.212067
2022-11-18T03:38:01.069Z,51.212143
2022-11-18T03:39:00.419Z,51.212112
2022-11-18T03:40:00.057Z,51.212032
2022-11-18T03:41:00.066Z,51.212006
2022-11-18T03:42:00.084Z,51.212097
2022-11-18T03:43:00.043Z,51.211990
2022-11-18T03:44:00.057Z,51.211952
2022-11-18T03:45:00.056Z,51.211983
2022-11-18T03:46:00.067Z,51.212093
2022-11-18T03:47:00.019Z,51.212112
2022-11-18T03:48:00.021Z,51.212132
2022-11-18T03:49:00.027Z,51.212193
2022-11-18T03:50:00.047Z,51.212193
2022-11-18T03:51:00.026Z,51.212143
2022-11-18T03:51:59.983Z,51.212135
2022-11-18T03:52:59.991Z,51.212185
2022-11-18T03:53:59.999Z,51.211998
2022-11-18T03:54:59.993Z,51.212032
2022-11-18T03:55:59.974Z,51.212044
2022-11-18T03:56:59.974Z,51.211884
2022-11-18T03:57:59.947Z,51.211906
2022-11-18T03:59:00.016Z,51.211697
2022-11-18T03:59:59.955Z,51.211781
2022-11-18T04:01:00.939Z,51.211864
2022-11-18T04:01:59.988Z,51.211617
2022-11-18T04:02:59.937Z,51.211449
2022-11-18T04:03:59.931Z,51.211761
2022-11-18T04:04:59.971Z,51.211800
2022-11-18T04:05:59.905Z,51.211491
2022-11-18T04:07:00.006Z,51.211754
2022-11-18T04:07:59.890Z,51.211876
2022-11-18T04:08:59.894Z,51.212105
2022-11-18T04:09:59.923Z,51.212059
2022-11-18T04:10:59.893Z,51.211914
2022-11-18T04:11:59.868Z,51.212025
2022-11-18T04:13:04.809Z,51.212029
2022-11-18T04:14:01.862Z,51.212063
2022-11-18T04:14:59.864Z,51.211857
2022-11-18T04:15:59.866Z,51.211952
2022-11-18T04:16:59.813Z,51.212067
2022-11-18T04:17:59.860Z,51.211983
2022-11-18T04:19:05.714Z,51.212025
2022-11-18T04:20:01.835Z,51.212063
2022-11-18T04:20:59.852Z,51.212078
2022-11-18T04:21:59.876Z,51.212032
2022-11-18T04:22:59.855Z,51.212132
2022-11-18T04:23:59.783Z,51.211971
2022-11-18T04:24:59.811Z,51.212082
2022-11-18T04:25:59.803Z,51.211933
2022-11-18T04:26:59.785Z,51.211914
2022-11-18T04:27:59.770Z,51.212078
2022-11-18T04:28:59.747Z,51.212021
2022-11-18T04:29:59.797Z,51.212162
2022-11-18T04:30:59.765Z,51.212273
2022-11-18T04:31:59.723Z,51.212280
2022-11-18T04:32:59.727Z,51.212029
2022-11-18T04:33:59.732Z,51.212002
2022-11-18T04:34:59.723Z,51.212170
2022-11-18T04:35:59.712Z,51.211998
2022-11-18T04:36:59.698Z,51.212040
2022-11-18T04:37:59.750Z,51.212158
2022-11-18T04:38:59.695Z,51.212177
2022-11-18T04:39:59.691Z,51.212208
2022-11-18T04:40:59.755Z,51.212254
2022-11-18T04:41:59.700Z,51.212208
2022-11-18T04:42:59.661Z,51.212162
2022-11-18T04:43:59.647Z,51.212132
2022-11-18T04:44:59.668Z,51.212135
2022-11-18T04:45:59.659Z,51.212132
2022-11-18T04:46:59.624Z,51.212101
2022-11-18T04:48:03.493Z,51.212189
2022-11-18T04:49:00.640Z,51.212128
2022-11-18T04:49:59.662Z,51.212086
2022-11-18T04:50:59.649Z,51.212109
2022-11-18T04:51:59.601Z,51.212101
2022-11-18T04:52:59.609Z,51.212036
2022-11-18T04:53:59.708Z,51.212055
2022-11-18T04:54:59.601Z,51.212032
2022-11-18T04:55:59.582Z,51.212029
2022-11-18T04:56:59.593Z,51.212006
2022-11-18T04:57:59.588Z,51.212040
2022-11-18T04:58:59.571Z,51.212025
2022-11-18T04:59:59.608Z,51.212040
2022-11-18T05:00:59.641Z,51.212112
2022-11-18T05:01:59.556Z,51.212166
2022-11-18T05:02:59.564Z,51.212055
2022-11-18T05:03:59.530Z,51.212017
2022-11-18T05:04:59.528Z,51.212048
2022-11-18T05:05:59.555Z,51.212093
2022-11-18T05:06:59.605Z,51.212070
2022-11-18T05:07:59.521Z,51.212021
2022-11-18T05:08:59.524Z,51.211941
2022-11-18T05:09:59.500Z,51.211895
2022-11-18T05:10:59.496Z,51.211945
2022-11-18T05:11:59.529Z,51.212017
2022-11-18T05:12:59.469Z,51.212044
2022-11-18T05:13:59.480Z,51.212109
2022-11-18T05:14:59.453Z,51.212128
2022-11-18T05:15:59.501Z,51.212200
2022-11-18T05:16:59.500Z,51.212170
2022-11-18T05:17:59.476Z,51.212067
2022-11-18T05:18:59.459Z,51.211956
2022-11-18T05:19:59.456Z,51.212029
2022-11-18T05:20:59.432Z,51.212021
2022-11-18T05:21:59.424Z,51.212025
2022-11-18T05:22:59.427Z,51.212082
2022-11-18T05:23:59.441Z,51.212112
2022-11-18T05:24:59.431Z,51.212265
2022-11-18T05:26:02.412Z,51.212177
2022-11-18T05:27:00.439Z,51.212437
2022-11-18T05:27:59.398Z,51.212120
2022-11-18T05:28:59.444Z,51.212078
2022-11-18T05:29:59.360Z,51.211967
2022-11-18T05:31:00.419Z,51.211975
2022-11-18T05:31:59.363Z,51.211678
2022-11-18T05:32:59.367Z,51.211658
2022-11-18T05:33:59.367Z,51.211800
2022-11-18T05:34:59.360Z,51.211906
2022-11-18T05:35:59.341Z,51.211781
2022-11-18T05:36:59.345Z,51.211761
2022-11-18T05:37:59.349Z,51.211880
2022-11-18T05:38:59.320Z,51.212017
2022-11-18T05:39:59.341Z,51.211948
2022-11-18T05:40:59.339Z,51.211948
2022-11-18T05:41:59.297Z,51.211983
2022-11-18T05:42:59.296Z,51.211891
2022-11-18T05:43:59.325Z,51.211826
2022-11-18T05:44:59.327Z,51.211700
2022-11-18T05:45:59.293Z,51.211739
2022-11-18T05:46:59.274Z,51.211895
2022-11-18T05:47:59.262Z,51.211880
2022-11-18T05:48:59.272Z,51.211903
2022-11-18T05:49:59.260Z,51.211819
2022-11-18T05:50:59.258Z,51.211983
2022-11-18T05:51:59.265Z,51.212040
2022-11-18T05:52:59.225Z,51.212009
2022-11-18T05:53:59.232Z,51.212029
2022-11-18T05:54:59.258Z,51.211952
2022-11-18T05:55:59.220Z,51.211956
2022-11-18T05:56:59.207Z,51.211864
2022-11-18T05:57:59.191Z,51.211800
2022-11-18T05:58:59.210Z,51.212082
2022-11-18T05:59:59.252Z,51.212124
2022-11-18T06:00:59.180Z,51.211987
2022-11-18T06:01:59.183Z,51.212029
2022-11-18T06:02:59.261Z,51.212002
2022-11-18T06:03:59.190Z,51.211990
2022-11-18T06:04:59.180Z,51.212029
2022-11-18T06:05:59.137Z,51.212105
2022-11-18T06:06:59.166Z,51.212090
2022-11-18T06:07:59.133Z,51.212029
2022-11-18T06:08:59.117Z,51.212101
2022-11-18T06:10:04.780Z,51.211998
2022-11-18T06:11:01.120Z,51.212189
2022-11-18T06:11:59.099Z,51.212288
2022-11-18T06:12:59.099Z,51.212189
2022-11-18T06:13:59.086Z,51.212074
2022-11-18T06:14:59.077Z,51.211998
2022-11-18T06:15:59.095Z,51.212139
2022-11-18T06:16:59.065Z,51.212048
2022-11-18T06:17:59.053Z,51.212147
2022-11-18T06:18:59.069Z,51.212124
2022-11-18T06:19:59.053Z,51.212036
2022-11-18T06:20:59.033Z,51.212170
2022-11-18T06:21:59.083Z,51.212101
2022-11-18T06:22:59.020Z,51.212109
2022-11-18T06:23:59.037Z,51.212212
2022-11-18T06:24:59.017Z,51.211967
2022-11-18T06:25:59.016Z,51.212105
2022-11-18T06:26:59.037Z,51.211910
2022-11-18T06:27:58.993Z,51.211754
2022-11-18T06:28:58.984Z,51.212006
2022-11-18T06:29:59.016Z,51.212204
2022-11-18T06:30:58.980Z,51.212029
2022-11-18T06:31:59.024Z,51.212029
2022-11-18T06:32:58.984Z,51.212086
2022-11-18T06:33:58.975Z,51.211697
2022-11-18T06:34:58.968Z,51.211811
2022-11-18T06:35:58.953Z,51.212067
2022-11-18T06:36:58.958Z,51.212177
2022-11-18T06:37:58.933Z,51.212025
2022-11-18T06:38:58.942Z,51.212093
2022-11-18T06:39:58.913Z,51.212254
2022-11-18T06:40:58.940Z,51.212276
2022-11-18T06:41:58.934Z,51.212082
2022-11-18T06:42:58.895Z,51.212093
2022-11-18T06:43:58.999Z,51.212074
2022-11-18T06:44:58.980Z,51.212048
2022-11-18T06:45:58.882Z,51.212101
2022-11-18T06:46:58.897Z,51.212105
2022-11-18T06:47:58.891Z,51.212055
2022-11-18T06:48:58.881Z,51.212082
2022-11-18T06:49:58.868Z,51.212093
2022-11-18T06:50:58.868Z,51.211967
2022-11-18T06:51:58.852Z,51.212044
2022-11-18T06:52:58.872Z,51.212166
2022-11-18T06:53:58.831Z,51.212196
2022-11-18T06:54:58.831Z,51.212090
2022-11-18T06:55:58.815Z,51.212044
2022-11-18T06:56:58.810Z,51.212063
2022-11-18T06:57:59.515Z,51.212078
2022-11-18T06:58:58.807Z,51.212124
2022-11-18T07:00:02.007Z,51.212097
2022-11-18T07:00:59.854Z,51.212086
2022-11-18T07:01:58.780Z,51.212185
2022-11-18T07:02:58.781Z,51.212166
2022-11-18T07:03:58.801Z,51.212231
2022-11-18T07:04:58.780Z,51.212189
2022-11-18T07:05:58.744Z,51.212223
2022-11-18T07:06:58.786Z,51.212330
2022-11-18T07:07:58.823Z,51.212196
2022-11-18T07:08:58.752Z,51.212124
2022-11-18T07:09:58.729Z,51.212234
2022-11-18T07:10:58.739Z,51.212292
2022-11-18T07:11:58.718Z,51.212181
2022-11-18T07:12:58.715Z,51.212200
2022-11-18T07:13:58.711Z,51.212189
2022-11-18T07:14:58.695Z,51.212143
2022-11-18T07:15:58.700Z,51.212269
2022-11-18T07:16:58.709Z,51.212078
2022-11-18T07:17:58.684Z,51.212101
2022-11-18T07:18:58.686Z,51.212097
2022-11-18T07:19:58.664Z,51.212090
2022-11-18T07:20:58.667Z,51.212112
2022-11-18T07:21:58.671Z,51.212189
2022-11-18T07:22:58.653Z,51.212196
2022-11-18T07:23:58.668Z,51.212032
2022-11-18T07:24:58.627Z,51.211971
2022-11-18T07:25:58.629Z,51.212383
2022-11-18T07:26:58.610Z,51.212307
2022-11-18T07:27:58.617Z,51.212273
2022-11-18T07:28:58.618Z,51.212189
2022-11-18T07:29:58.602Z,51.212143
2022-11-18T07:30:58.723Z,51.211960
2022-11-18T07:31:58.591Z,51.211975
2022-11-18T07:32:58.583Z,51.212170
2022-11-18T07:33:59.593Z,51.212120
2022-11-18T07:34:58.580Z,51.212124
2022-11-18T07:35:58.565Z,51.212151
2022-11-18T07:36:58.566Z,51.212185
2022-11-18T07:37:58.573Z,51.212208
2022-11-18T07:38:58.560Z,51.212132
2022-11-18T07:39:58.544Z,51.212070
2022-11-18T07:40:58.531Z,51.212162
2022-11-18T07:41:58.533Z,51.212212
2022-11-18T07:42:58.535Z,51.212269
2022-11-18T07:44:00.786Z,51.212177
2022-11-18T07:44:59.516Z,51.212162
2022-11-18T07:45:58.499Z,51.212284
2022-11-18T07:46:58.495Z,51.212315
2022-11-18T07:47:58.492Z,51.212292
2022-11-18T07:48:58.476Z,51.212410
2022-11-18T07:49:59.504Z,51.212383
2022-11-18T07:50:58.464Z,51.212269
2022-11-18T07:51:58.458Z,51.212147
2022-11-18T07:52:58.480Z,51.212299
2022-11-18T07:53:58.456Z,51.212280
2022-11-18T07:54:58.461Z,51.212242
2022-11-18T07:55:58.437Z,51.212273
2022-11-18T07:56:58.437Z,51.212399
2022-11-18T07:57:58.429Z,51.212479
2022-11-18T07:58:58.424Z,51.212196
2022-11-18T07:59:58.437Z,51.212254
2022-11-18T08:00:58.515Z,51.212318
2022-11-18T08:01:58.465Z,51.212318
2022-11-18T08:02:58.387Z,51.212410
2022-11-18T08:03:58.392Z,51.212494
2022-11-18T08:04:58.460Z,51.212147
2022-11-18T08:05:58.376Z,51.212055
2022-11-18T08:06:58.420Z,51.212006
2022-11-18T08:07:58.357Z,51.212009
2022-11-18T08:08:58.358Z,51.212120
2022-11-18T08:09:58.353Z,51.211941
2022-11-18T08:10:58.357Z,51.211926
2022-11-18T08:11:58.337Z,51.212013
2022-11-18T08:12:58.336Z,51.212006
2022-11-18T08:13:58.320Z,51.211922
2022-11-18T08:14:58.307Z,51.211979
2022-11-18T08:15:58.327Z,51.211887
2022-11-18T08:16:58.298Z,51.211857
2022-11-18T08:17:58.305Z,51.211761
2022-11-18T08:18:58.285Z,51.211842
2022-11-18T08:19:58.277Z,51.212086
2022-11-18T08:20:58.282Z,51.212070
2022-11-18T08:21:58.292Z,51.212029
2022-11-18T08:22:58.254Z,51.212044
2022-11-18T08:23:58.249Z,51.212090
2022-11-18T08:24:58.245Z,51.212143
2022-11-18T08:25:58.245Z,51.212059
2022-11-18T08:26:58.238Z,51.212032
2022-11-18T08:27:58.230Z,51.212074
2022-11-18T08:28:58.334Z,51.212139
2022-11-18T08:29:58.204Z,51.212139
2022-11-18T08:30:58.207Z,51.212101
2022-11-18T08:31:58.197Z,51.212101
2022-11-18T08:32:58.188Z,51.212200
2022-11-18T08:33:58.192Z,51.212063
2022-11-18T08:34:58.187Z,51.212044
2022-11-18T08:35:58.174Z,51.212166
2022-11-18T08:36:58.157Z,51.212151
2022-11-18T08:37:58.144Z,51.212078
2022-11-18T08:38:58.157Z,51.212124
2022-11-18T08:39:58.133Z,51.212120
2022-11-18T08:40:58.128Z,51.212189
2022-11-18T08:41:58.112Z,51.212250
2022-11-18T08:42:58.120Z,51.212090
2022-11-18T08:43:58.115Z,51.212048
2022-11-18T08:44:58.132Z,51.212124
2022-11-18T08:45:58.098Z,51.212082
2022-11-18T08:46:58.101Z,51.212032
2022-11-18T08:47:58.074Z,51.212040
2022-11-18T08:48:58.078Z,51.212196
2022-11-18T08:49:58.068Z,51.212193
2022-11-18T08:50:58.054Z,51.212109
2022-11-18T08:51:58.056Z,51.212128
2022-11-18T08:52:58.048Z,51.212112
2022-11-18T08:53:58.025Z,51.212112
2022-11-18T08:54:58.028Z,51.212223
2022-11-18T08:55:58.021Z,51.212109
2022-11-18T08:56:58.020Z,51.212162
2022-11-18T08:57:58.009Z,51.212116
2022-11-18T08:58:58.021Z,51.212132
2022-11-18T08:59:58.005Z,51.212181
2022-11-18T09:00:58.029Z,51.212193
2022-11-18T09:01:58.039Z,51.212158
2022-11-18T09:03:32.074Z,51.212200
2022-11-18T09:03:58.012Z,51.212280
2022-11-18T09:04:57.948Z,51.212349
2022-11-18T09:06:30.371Z,51.212463
2022-11-18T09:06:57.979Z,51.212414
2022-11-18T09:07:57.950Z,51.212334
2022-11-18T09:09:30.392Z,51.212082
2022-11-18T09:09:57.948Z,51.212070
2022-11-18T09:11:30.324Z,51.212139
2022-11-18T09:12:30.344Z,51.212120
2022-11-18T09:15:12.519Z,51.212147
2022-11-18T09:15:15.247Z,51.212234
2022-11-18T09:15:59.876Z,51.212116
2022-11-18T09:16:57.898Z,51.212070
2022-11-18T09:18:30.295Z,51.212204
2022-11-18T09:18:57.868Z,51.212124
2022-11-18T09:19:57.862Z,51.212276
2022-11-18T09:20:57.849Z,51.212154
2022-11-18T09:21:57.863Z,51.212170
2022-11-18T09:22:57.825Z,51.212147
2022-11-18T09:23:57.848Z,51.212227
2022-11-18T09:25:30.265Z,51.212158
2022-11-18T09:25:57.812Z,51.211693
2022-11-18T09:26:57.808Z,51.211994
2022-11-18T09:27:57.845Z,51.212090
2022-11-18T09:28:57.800Z,51.212227
2022-11-18T09:29:57.787Z,51.212101
2022-11-18T09:30:57.771Z,51.211971
2022-11-18T09:31:57.779Z,51.211952
2022-11-18T09:32:57.783Z,51.211971
2022-11-18T09:33:57.751Z,51.212074
2022-11-18T09:34:57.753Z,51.212128
2022-11-18T09:35:57.713Z,51.212273
2022-11-18T09:36:57.737Z,51.212276
2022-11-18T09:37:57.728Z,51.212128
2022-11-18T09:38:57.744Z,51.212101
2022-11-18T09:39:57.715Z,51.212185
2022-11-18T09:40:57.725Z,51.212090
2022-11-18T09:41:57.695Z,51.212070
2022-11-18T09:42:57.687Z,51.212067
2022-11-18T09:43:57.745Z,51.212200
2022-11-18T09:44:57.671Z,51.212002
2022-11-18T09:45:57.668Z,51.211842
2022-11-18T09:46:57.689Z,51.211994
2022-11-18T09:47:57.655Z,51.212070
2022-11-18T09:48:57.651Z,51.212120
2022-11-18T09:49:57.691Z,51.212238
2022-11-18T09:50:57.642Z,51.212238
2022-11-18T09:51:57.640Z,51.212254
2022-11-18T09:52:57.614Z,51.212143
2022-11-18T09:53:57.608Z,51.212147
2022-11-18T09:55:29.584Z,51.212173
2022-11-18T09:55:57.614Z,51.212341
2022-11-18T09:56:57.613Z,51.212173
2022-11-18T09:57:57.587Z,51.212124
2022-11-18T09:58:57.583Z,51.212040
2022-11-18T09:59:57.599Z,51.211990
2022-11-18T10:00:57.580Z,51.211864
2022-11-18T10:01:57.628Z,51.212105
2022-11-18T10:02:57.558Z,51.212051
2022-11-18T10:03:57.555Z,51.211990
2022-11-18T10:04:57.528Z,51.212017
2022-11-18T10:05:57.552Z,51.212055
2022-11-18T10:06:57.549Z,51.212143
2022-11-18T10:07:57.505Z,51.212147
2022-11-18T10:08:57.506Z,51.212139
2022-11-18T10:09:57.501Z,51.212204
2022-11-18T10:10:57.501Z,51.212162
2022-11-18T10:11:57.504Z,51.212273
2022-11-18T10:12:57.479Z,51.212246
2022-11-18T10:13:57.486Z,51.212177
2022-11-18T10:14:57.474Z,51.212173
2022-11-18T10:15:57.458Z,51.212231
2022-11-18T10:16:58.252Z,51.212189
2022-11-18T10:17:58.449Z,51.212208
2022-11-18T10:19:01.286Z,51.212231
2022-11-18T10:19:58.525Z,51.212219
2022-11-18T10:20:57.428Z,51.212158
2022-11-18T10:21:57.417Z,51.212040
2022-11-18T10:22:57.427Z,51.212063
2022-11-18T10:23:57.414Z,51.211895
2022-11-18T10:24:57.389Z,51.211971
2022-11-18T10:25:57.390Z,51.212112
2022-11-18T10:26:57.429Z,51.212162
2022-11-18T10:27:57.475Z,51.212025
2022-11-18T10:28:57.362Z,51.212048
2022-11-18T10:29:57.391Z,51.212124
2022-11-18T10:30:57.343Z,51.212128
2022-11-18T10:31:59.730Z,51.212101
2022-11-18T10:32:59.343Z,51.212059
2022-11-18T10:33:57.322Z,51.212105
2022-11-18T10:34:57.332Z,51.212101
2022-11-18T10:35:57.347Z,51.212090
2022-11-18T10:36:57.307Z,51.212135
2022-11-18T10:38:12.730Z,51.212105
2022-11-18T10:38:59.315Z,51.212067
2022-11-18T10:39:57.355Z,51.212116
2022-11-18T10:40:57.319Z,51.212173
2022-11-18T10:41:57.282Z,51.212132
2022-11-18T10:42:57.289Z,51.212124
2022-11-18T10:43:57.253Z,51.212173
2022-11-18T10:44:58.250Z,51.212112
2022-11-18T10:45:57.251Z,51.212166
2022-11-18T10:46:57.237Z,51.212132
2022-11-18T10:47:57.258Z,51.212128
2022-11-18T10:48:57.230Z,51.212097
2022-11-18T10:49:57.304Z,51.212093
2022-11-18T10:50:57.221Z,51.212093
2022-11-18T10:51:57.207Z,51.212078
2022-11-18T10:52:57.194Z,51.212086
2022-11-18T10:53:57.210Z,51.211956
2022-11-18T10:54:57.190Z,51.211876
2022-11-18T10:55:57.198Z,51.211887
2022-11-18T10:56:58.470Z,51.212055
2022-11-18T10:57:58.170Z,51.212135
2022-11-18T10:58:57.209Z,51.212143
2022-11-18T10:59:57.406Z,51.212139
2022-11-18T11:00:57.152Z,51.212143
2022-11-18T11:01:57.207Z,51.212143
2022-11-18T11:02:57.126Z,51.211708
2022-11-18T11:03:57.170Z,51.212025
2022-11-18T11:04:57.125Z,51.212013
2022-11-18T11:05:57.147Z,51.211979
2022-11-18T11:06:57.130Z,51.211975
2022-11-18T11:08:14.586Z,51.212009
2022-11-18T11:08:59.126Z,51.211998
2022-11-18T11:09:57.096Z,51.211994
2022-11-18T11:10:57.078Z,51.211880
2022-11-18T11:11:57.073Z,51.212059
2022-11-18T11:12:57.084Z,51.212013
2022-11-18T11:13:57.115Z,51.212212
2022-11-18T11:14:57.096Z,51.212120
2022-11-18T11:15:57.082Z,51.212032
2022-11-18T11:16:57.087Z,51.212044
2022-11-18T11:17:57.089Z,51.212044
2022-11-18T11:18:57.026Z,51.211952
2022-11-18T11:19:57.030Z,51.212105
2022-11-18T11:20:57.038Z,51.212067
2022-11-18T11:21:56.993Z,51.212044
2022-11-18T11:22:57.063Z,51.212090
2022-11-18T11:23:56.986Z,51.212029
2022-11-18T11:24:56.979Z,51.212036